Time,TemperatureF,DewpointF,PressureIn,WindDirection,WindDirectionDegrees,WindSpeedMPH,WindSpeedGustMPH,Humidity,HourlyPrecipIn,Conditions,Clouds,dailyrainin,SoftwareType,DateUTC
2013-07-19 00:01:00,79.8,76.3,29.01,ESE,122,2.5,4.6,89,0.00,RA,FEW,0.00,WeatherDisplay:10.37,2013-07-19 05:01:00,
2013-07-19 00:06:00,79.7,76.2,29.01,SE,131,2.8,4.6,89,0.00,RA,FEW,0.00,WeatherDisplay:10.37,2013-07-19 05:06:00,
2013-07-19 00:11:00,79.6,76.1,29.01,SE,140,1.3,5.8,89,0.00,,FEW,0.00,WeatherDisplay:10.37,2013-07-19 05:11:00,
2013-07-19 00:16:00,79.4,76.2,29.01,SE,143,0.6,1.2,90,0.00,,FEW,0.00,WeatherDisplay:10.37,2013-07-19 05:16:00,
2013-07-19 00:21:00,79.3,76.1,29.01,SE,138,2.5,3.5,90,0.00,,FEW,0.00,WeatherDisplay:10.37,2013-07-19 05:21:00,
2013-07-19 00:26:00,79.3,76.1,29.01,ESE,119,2.0,3.5,90,0.00,,FEW,0.00,WeatherDisplay:10.37,2013-07-19 05:26:00,
2013-07-19 00:31:00,79.2,76.0,29.01,SE,129,0.0,0.0,90,0.00,,FEW,0.00,WeatherDisplay:10.37,2013-07-19 05:31:00,
2013-07-19 00:36:00,79.2,76.3,29.01,SE,140,0.1,1.2,91,0.00,,FEW,0.00,WeatherDisplay:10.37,2013-07-19 05:36:00,
2013-07-19 00:41:00,79.1,76.2,29.01,SE,126,0.2,1.2,91,0.00,,FEW,0.00,WeatherDisplay:10.37,2013-07-19 05:41:00,
2013-07-19 00:46:00,79.1,76.2,29.01,SE,135,1.9,2.3,91,0.00,,FEW,0.00,WeatherDisplay:10.37,2013-07-19 05:46:00,
2013-07-19 00:51:00,79.2,76.3,29.01,SE,132,0.0,0.0,91,0.00,,FEW,0.00,WeatherDisplay:10.37,2013-07-19 05:51:00,
2013-07-19 00:56:00,79.2,76.3,29.01,SE,135,2.1,4.6,91,0.00,,FEW,0.00,WeatherDisplay:10.37,2013-07-19 05:56:00,
2013-07-19 01:01:00,79.3,76.4,29.01,SE,128,0.1,1.2,91,0.00,,FEW,0.00,WeatherDisplay:10.37,2013-07-19 06:01:00,
2013-07-19 01:06:00,79.3,76.1,29.01,SSE,147,0.8,5.8,90,0.00,,FEW,0.00,WeatherDisplay:10.37,2013-07-19 06:06:00,
2013-07-19 01:11:00,79.3,75.4,29.00,ESE,118,2.6,4.6,88,0.00,,FEW,0.00,WeatherDisplay:10.37,2013-07-19 06:11:00,
2013-07-19 01:16:00,79.4,75.9,29.00,SSE,147,0.1,1.2,89,0.11,RA,FEW,0.12,WeatherDisplay:10.37,2013-07-19 06:16:00,
2013-07-19 01:21:00,79.2,76.0,29.00,SSE,154,0.7,2.3,90,0.12,RA,FEW,0.12,WeatherDisplay:10.37,2013-07-19 06:21:00,
2013-07-19 01:26:00,78.8,75.9,29.00,SE,146,0.1,1.2,91,0.12,RA,FEW,0.12,WeatherDisplay:10.37,2013-07-19 06:26:00,
2013-07-19 01:31:00,78.7,76.2,29.00,SE,132,3.3,5.8,92,0.12,,FEW,0.12,WeatherDisplay:10.37,2013-07-19 06:31:00,
2013-07-19 01:36:00,78.5,76.0,29.00,ESE,114,4.5,6.9,92,0.12,,FEW,0.12,WeatherDisplay:10.37,2013-07-19 06:36:00,
2013-07-19 01:41:00,78.4,76.2,29.00,ESE,113,0.7,2.3,93,0.12,,FEW,0.12,WeatherDisplay:10.37,2013-07-19 06:41:00,
2013-07-19 01:46:00,78.3,76.1,28.99,SE,135,1.2,2.3,93,0.12,,FEW,0.12,WeatherDisplay:10.37,2013-07-19 06:46:00,
2013-07-19 01:51:00,78.2,76.0,28.99,SE,140,2.0,4.6,93,0.12,,FEW,0.12,WeatherDisplay:10.37,2013-07-19 06:51:00,
2013-07-19 01:56:00,78.2,76.0,29.00,SE,137,1.0,3.5,93,0.12,,FEW,0.12,WeatherDisplay:10.37,2013-07-19 06:56:00,
2013-07-19 02:01:00,78.1,75.9,28.99,SE,142,5.1,6.9,93,0.12,,FEW,0.12,WeatherDisplay:10.37,2013-07-19 07:01:00,
2013-07-19 02:06:00,78.1,75.9,28.99,ESE,123,1.0,5.8,93,0.12,,FEW,0.12,WeatherDisplay:10.37,2013-07-19 07:06:00,
2013-07-19 02:11:00,78.0,75.8,28.99,SE,130,0.3,4.6,93,0.12,,FEW,0.12,WeatherDisplay:10.37,2013-07-19 07:11:00,
2013-07-19 02:16:00,77.9,75.7,28.99,SE,135,0.7,2.3,93,0.01,,FEW,0.12,WeatherDisplay:10.37,2013-07-19 07:16:00,
2013-07-19 02:21:00,77.8,75.6,28.99,SE,140,1.6,4.6,93,0.00,,FEW,0.12,WeatherDisplay:10.37,2013-07-19 07:21:00,
2013-07-19 02:26:00,77.7,75.5,28.99,SE,135,0.4,4.6,93,0.00,,FEW,0.12,WeatherDisplay:10.37,2013-07-19 07:26:00,
2013-07-19 02:31:00,77.6,75.4,28.99,SE,132,0.4,1.2,93,0.00,,FEW,0.12,WeatherDisplay:10.37,2013-07-19 07:31:00,
2013-07-19 02:36:00,77.5,75.3,28.99,SE,133,1.8,3.5,93,0.00,,FEW,0.12,WeatherDisplay:10.37,2013-07-19 07:36:00,
2013-07-19 02:41:00,77.6,75.4,28.99,ESE,122,1.7,4.2,93,0.00,,FEW,0.12,WeatherDisplay:10.37,2013-07-19 07:41:00,
2013-07-19 02:46:00,77.6,75.4,28.99,SSE,151,2.4,3.5,93,0.00,,FEW,0.12,WeatherDisplay:10.37,2013-07-19 07:46:00,
2013-07-19 02:51:00,77.6,75.4,28.98,ESE,103,0.0,0.0,93,0.00,,FEW,0.12,WeatherDisplay:10.37,2013-07-19 07:51:00,
2013-07-19 02:56:00,77.6,75.4,28.98,SE,145,0.5,2.3,93,0.00,,FEW,0.12,WeatherDisplay:10.37,2013-07-19 07:56:00,
2013-07-19 03:01:00,77.5,75.3,28.98,SE,128,0.1,1.2,93,0.00,,FEW,0.12,WeatherDisplay:10.37,2013-07-19 08:01:00,
2013-07-19 03:06:00,77.4,75.5,28.98,SE,144,0.5,3.5,94,0.00,,FEW,0.12,WeatherDisplay:10.37,2013-07-19 08:06:00,
2013-07-19 03:11:00,77.4,75.5,28.98,SE,140,0.0,0.0,94,0.00,,FEW,0.12,WeatherDisplay:10.37,2013-07-19 08:11:00,
2013-07-19 03:16:00,77.2,75.3,28.98,SE,140,0.0,0.0,94,0.00,,FEW,0.12,WeatherDisplay:10.37,2013-07-19 08:16:00,
2013-07-19 03:21:00,77.1,75.2,28.98,SE,140,0.0,0.0,94,0.00,,FEW,0.12,WeatherDisplay:10.37,2013-07-19 08:21:00,
2013-07-19 03:26:00,76.9,75.0,28.97,SE,140,0.0,0.0,94,0.00,,FEW,0.12,WeatherDisplay:10.37,2013-07-19 08:26:00,
2013-07-19 03:31:00,76.8,74.9,28.97,SE,140,0.0,0.0,94,0.00,,FEW,0.12,WeatherDisplay:10.37,2013-07-19 08:31:00,
2013-07-19 03:36:00,76.7,75.2,28.97,SSE,148,0.0,0.0,95,0.00,,FEW,0.12,WeatherDisplay:10.37,2013-07-19 08:36:00,
2013-07-19 03:41:00,76.7,75.2,28.97,SSE,148,0.0,0.0,95,0.00,,FEW,0.12,WeatherDisplay:10.37,2013-07-19 08:41:00,
2013-07-19 03:46:00,76.7,75.2,28.97,SE,145,0.0,0.0,95,0.00,,FEW,0.12,WeatherDisplay:10.37,2013-07-19 08:46:00,
2013-07-19 03:51:00,76.6,75.1,28.97,SE,145,0.0,0.0,95,0.00,,FEW,0.12,WeatherDisplay:10.37,2013-07-19 08:51:00,
2013-07-19 03:56:00,76.6,75.1,28.97,SE,145,0.0,0.0,95,0.00,,FEW,0.12,WeatherDisplay:10.37,2013-07-19 08:56:00,
2013-07-19 04:01:00,76.5,75.0,28.97,SE,145,0.0,0.0,95,0.00,,FEW,0.12,WeatherDisplay:10.37,2013-07-19 09:01:00,
2013-07-19 04:06:00,76.5,75.0,28.97,SE,145,0.0,0.0,95,0.00,,FEW,0.12,WeatherDisplay:10.37,2013-07-19 09:06:00,
2013-07-19 04:11:00,76.5,75.0,28.97,SE,146,0.0,0.0,95,0.00,,FEW,0.12,WeatherDisplay:10.37,2013-07-19 09:11:00,
2013-07-19 04:16:00,76.6,75.1,28.97,SE,145,0.0,0.0,95,0.00,,FEW,0.12,WeatherDisplay:10.37,2013-07-19 09:16:00,
2013-07-19 04:21:00,76.5,75.0,28.97,SE,145,0.0,0.0,95,0.00,,FEW,0.12,WeatherDisplay:10.37,2013-07-19 09:21:00,
2013-07-19 04:26:00,76.4,74.9,28.97,SE,134,0.0,0.0,95,0.00,,FEW,0.12,WeatherDisplay:10.37,2013-07-19 09:26:00,
2013-07-19 04:31:00,76.3,74.8,28.96,SE,131,0.0,1.2,95,0.00,,FEW,0.12,WeatherDisplay:10.37,2013-07-19 09:31:00,
2013-07-19 04:36:00,76.3,76.3,28.97,SE,132,0.0,1.2,100,0.00,,FEW,0.12,WeatherDisplay:10.37,2013-07-19 09:36:00,
2013-07-19 04:41:00,76.3,76.3,28.97,SE,135,0.0,0.0,100,0.00,,FEW,0.12,WeatherDisplay:10.37,2013-07-19 09:41:00,
2013-07-19 04:46:00,76.2,76.2,28.97,SE,135,0.0,0.0,100,0.00,,FEW,0.12,WeatherDisplay:10.37,2013-07-19 09:46:00,
2013-07-19 04:51:00,76.2,76.2,28.96,SE,135,0.0,0.0,100,0.00,,FEW,0.12,WeatherDisplay:10.37,2013-07-19 09:51:00,
2013-07-19 04:56:00,76.1,76.1,28.96,SE,135,0.0,0.0,100,0.00,,FEW,0.12,WeatherDisplay:10.37,2013-07-19 09:56:00,
2013-07-19 05:01:00,76.0,76.0,28.97,SE,136,0.0,0.0,100,0.00,,FEW,0.12,WeatherDisplay:10.37,2013-07-19 10:01:00,
2013-07-19 05:06:00,75.8,75.8,28.96,SE,135,0.0,0.0,100,0.00,,FEW,0.12,WeatherDisplay:10.37,2013-07-19 10:06:00,
2013-07-19 05:11:00,75.8,75.8,28.96,SE,135,0.0,0.0,100,0.00,,FEW,0.12,WeatherDisplay:10.37,2013-07-19 10:11:00,
2013-07-19 05:16:00,75.8,75.8,28.97,SE,135,0.0,0.0,100,0.00,,FEW,0.12,WeatherDisplay:10.37,2013-07-19 10:16:00,
2013-07-19 05:21:00,75.8,75.8,28.97,SE,135,0.0,0.0,100,0.00,,FEW,0.12,WeatherDisplay:10.37,2013-07-19 10:21:00,
2013-07-19 05:26:00,75.8,75.8,28.97,SE,135,0.0,0.0,100,0.00,,FEW,0.12,WeatherDisplay:10.37,2013-07-19 10:26:00,
2013-07-19 05:31:00,75.8,75.8,28.97,SE,135,0.0,0.0,100,0.00,,FEW,0.12,WeatherDisplay:10.37,2013-07-19 10:31:00,
2013-07-19 05:36:00,75.7,75.7,28.97,SE,135,0.0,0.0,100,0.00,,FEW,0.12,WeatherDisplay:10.37,2013-07-19 10:36:00,
2013-07-19 05:41:00,75.5,75.5,28.96,SE,135,0.0,0.0,100,0.00,,FEW,0.12,WeatherDisplay:10.37,2013-07-19 10:41:00,
2013-07-19 05:46:00,75.4,75.4,28.97,SE,135,0.0,0.0,100,0.00,,FEW,0.12,WeatherDisplay:10.37,2013-07-19 10:46:00,
2013-07-19 05:51:00,75.3,75.3,28.97,SE,135,0.0,0.0,100,0.00,,FEW,0.12,WeatherDisplay:10.37,2013-07-19 10:51:00,
2013-07-19 05:56:00,75.2,75.2,28.97,SE,135,0.0,0.0,100,0.00,,FEW,0.12,WeatherDisplay:10.37,2013-07-19 10:56:00,
2013-07-19 06:01:00,75.0,75.0,28.97,SE,136,0.0,0.0,100,0.00,,FEW,0.12,WeatherDisplay:10.37,2013-07-19 11:01:00,
2013-07-19 06:06:00,75.0,75.0,28.97,SE,135,0.0,0.0,100,0.00,,FEW,0.12,WeatherDisplay:10.37,2013-07-19 11:06:00,
2013-07-19 06:11:00,74.9,74.9,28.97,SE,135,0.0,0.0,100,0.00,,FEW,0.12,WeatherDisplay:10.37,2013-07-19 11:11:00,
2013-07-19 06:16:00,74.8,74.8,28.97,SE,136,0.0,0.0,100,0.00,,FEW,0.12,WeatherDisplay:10.37,2013-07-19 11:16:00,
2013-07-19 06:21:00,74.6,74.6,28.98,SE,135,0.0,0.0,100,0.00,,FEW,0.12,WeatherDisplay:10.37,2013-07-19 11:21:00,
2013-07-19 06:26:00,74.4,74.4,28.98,SE,135,0.0,0.0,100,0.00,,FEW,0.12,WeatherDisplay:10.37,2013-07-19 11:26:00,
2013-07-19 06:31:00,74.4,74.4,28.98,SE,135,0.0,0.0,100,0.00,,FEW,0.12,WeatherDisplay:10.37,2013-07-19 11:31:00,
2013-07-19 06:36:00,74.2,74.2,28.98,SE,135,0.0,0.0,100,0.00,,FEW,0.12,WeatherDisplay:10.37,2013-07-19 11:36:00,
2013-07-19 06:41:00,74.0,74.0,28.98,SE,135,0.0,0.0,100,0.00,,FEW,0.12,WeatherDisplay:10.37,2013-07-19 11:41:00,
2013-07-19 06:46:00,73.9,73.9,28.98,SE,135,0.0,0.0,100,0.00,,FEW,0.12,WeatherDisplay:10.37,2013-07-19 11:46:00,
2013-07-19 06:51:00,73.9,73.9,28.98,SE,135,0.0,0.0,100,0.00,,FEW,0.12,WeatherDisplay:10.37,2013-07-19 11:51:00,
2013-07-19 06:56:00,74.0,74.0,28.98,SE,135,0.0,0.0,100,0.00,,FEW,0.12,WeatherDisplay:10.37,2013-07-19 11:56:00,
2013-07-19 07:01:00,74.0,74.0,28.98,SE,135,0.0,0.0,100,0.00,,FEW,0.12,WeatherDisplay:10.37,2013-07-19 12:01:00,
2013-07-19 07:06:00,74.1,74.1,28.98,SE,135,0.0,0.0,100,0.00,,FEW,0.12,WeatherDisplay:10.37,2013-07-19 12:06:00,
2013-07-19 07:11:00,74.2,74.2,28.98,SE,135,0.0,0.0,100,0.00,,FEW,0.12,WeatherDisplay:10.37,2013-07-19 12:11:00,
2013-07-19 07:16:00,74.4,74.4,28.99,SE,135,0.0,0.0,100,0.00,,FEW,0.12,WeatherDisplay:10.37,2013-07-19 12:16:00,
2013-07-19 07:21:00,74.5,74.5,28.98,SE,135,0.0,0.0,100,0.00,,FEW,0.12,WeatherDisplay:10.37,2013-07-19 12:21:00,
2013-07-19 07:26:00,74.8,74.8,28.98,SE,135,0.0,0.0,100,0.00,,FEW,0.12,WeatherDisplay:10.37,2013-07-19 12:26:00,
2013-07-19 07:31:00,75.2,75.2,28.98,SE,135,0.0,0.0,100,0.00,,FEW,0.12,WeatherDisplay:10.37,2013-07-19 12:31:00,
2013-07-19 07:36:00,75.4,75.4,28.99,SE,135,0.0,0.0,100,0.00,,FEW,0.12,WeatherDisplay:10.37,2013-07-19 12:36:00,
2013-07-19 07:41:00,75.7,75.7,28.98,SE,135,0.0,0.0,100,0.00,,FEW,0.12,WeatherDisplay:10.37,2013-07-19 12:41:00,
2013-07-19 07:46:00,76.1,76.1,28.99,SE,135,0.0,0.0,100,0.00,,FEW,0.12,WeatherDisplay:10.37,2013-07-19 12:46:00,
2013-07-19 07:51:00,76.5,76.5,28.99,SE,135,0.0,0.0,100,0.00,,FEW,0.12,WeatherDisplay:10.37,2013-07-19 12:51:00,
2013-07-19 07:56:00,76.9,76.9,28.99,SE,135,0.0,0.0,100,0.00,,FEW,0.12,WeatherDisplay:10.37,2013-07-19 12:56:00,
2013-07-19 08:01:00,77.2,77.2,28.99,SE,135,0.0,0.0,100,0.00,,FEW,0.12,WeatherDisplay:10.37,2013-07-19 13:01:00,
2013-07-19 08:06:00,77.6,77.6,28.99,SE,135,0.0,0.0,100,0.00,,FEW,0.12,WeatherDisplay:10.37,2013-07-19 13:06:00,
2013-07-19 08:11:00,77.9,77.9,28.99,SE,135,0.0,0.0,100,0.00,,FEW,0.12,WeatherDisplay:10.37,2013-07-19 13:11:00,
2013-07-19 08:16:00,78.4,78.4,29.00,SE,136,0.0,0.0,100,0.00,,FEW,0.12,WeatherDisplay:10.37,2013-07-19 13:16:00,
2013-07-19 08:21:00,78.5,78.5,28.99,SE,135,0.0,0.0,100,0.00,,FEW,0.12,WeatherDisplay:10.37,2013-07-19 13:21:00,
2013-07-19 08:26:00,78.8,78.8,29.00,SE,135,0.0,0.0,100,0.00,,FEW,0.12,WeatherDisplay:10.37,2013-07-19 13:26:00,
2013-07-19 08:31:00,79.1,79.1,29.00,SE,135,0.0,0.0,100,0.00,,FEW,0.12,WeatherDisplay:10.37,2013-07-19 13:31:00,
2013-07-19 08:36:00,79.5,79.5,29.00,SE,135,0.0,0.0,100,0.00,,FEW,0.12,WeatherDisplay:10.37,2013-07-19 13:36:00,
2013-07-19 08:41:00,80.1,80.1,29.00,SE,135,0.0,0.0,100,0.00,,FEW,0.12,WeatherDisplay:10.37,2013-07-19 13:41:00,
2013-07-19 08:46:00,80.8,80.8,29.01,SE,135,0.0,0.0,100,0.00,,FEW,0.12,WeatherDisplay:10.37,2013-07-19 13:46:00,
2013-07-19 08:51:00,81.1,78.6,29.01,SE,130,0.2,1.2,92,0.00,,FEW,0.12,WeatherDisplay:10.37,2013-07-19 13:51:00,
2013-07-19 08:56:00,81.5,78.3,29.01,SE,128,0.0,0.0,90,0.00,,FEW,0.12,WeatherDisplay:10.37,2013-07-19 13:56:00,
2013-07-19 09:01:00,81.9,78.0,29.01,SSE,152,0.0,0.0,88,0.00,,FEW,0.12,WeatherDisplay:10.37,2013-07-19 14:01:00,
2013-07-19 09:06:00,82.2,76.9,29.01,SE,125,1.7,3.5,84,0.00,,FEW,0.12,WeatherDisplay:10.37,2013-07-19 14:06:00,
2013-07-19 09:11:00,82.1,76.4,29.01,ESE,112,2.0,3.5,83,0.00,,FEW,0.12,WeatherDisplay:10.37,2013-07-19 14:11:00,
2013-07-19 09:16:00,82.3,76.3,29.01,ESE,108,3.8,5.8,82,0.00,,FEW,0.12,WeatherDisplay:10.37,2013-07-19 14:16:00,
2013-07-19 09:21:00,82.6,76.9,29.01,ESE,118,0.0,0.0,83,0.00,,FEW,0.12,WeatherDisplay:10.37,2013-07-19 14:21:00,
2013-07-19 09:26:00,83.6,76.8,29.01,East,101,0.6,2.3,80,0.00,,FEW,0.12,WeatherDisplay:10.37,2013-07-19 14:26:00,
2013-07-19 09:31:00,83.6,76.8,29.01,East,96,0.8,3.5,80,0.00,,FEW,0.12,WeatherDisplay:10.37,2013-07-19 14:31:00,
2013-07-19 09:36:00,83.8,76.6,29.01,ESE,106,1.2,2.3,79,0.00,,FEW,0.12,WeatherDisplay:10.37,2013-07-19 14:36:00,
2013-07-19 09:41:00,83.6,76.4,29.01,South,173,1.4,3.5,79,0.00,,FEW,0.12,WeatherDisplay:10.37,2013-07-19 14:41:00,
2013-07-19 09:46:00,84.2,77.4,29.01,North,11,0.3,2.3,80,0.00,,FEW,0.12,WeatherDisplay:10.37,2013-07-19 14:46:00,
2013-07-19 09:51:00,84.7,76.7,29.01,SE,132,2.4,5.2,77,0.00,,FEW,0.12,WeatherDisplay:10.37,2013-07-19 14:51:00,
2013-07-19 09:56:00,84.1,76.5,29.00,SE,144,1.9,4.6,78,0.00,,FEW,0.12,WeatherDisplay:10.37,2013-07-19 14:56:00,
2013-07-19 10:01:00,84.8,77.2,29.00,ENE,57,2.2,4.6,78,0.00,,FEW,0.12,WeatherDisplay:10.37,2013-07-19 15:01:00,
2013-07-19 10:06:00,84.9,76.9,29.00,East,92,0.3,2.3,77,0.00,,FEW,0.12,WeatherDisplay:10.37,2013-07-19 15:06:00,
2013-07-19 10:11:00,84.9,76.1,29.00,ESE,106,1.5,3.5,75,0.00,,FEW,0.12,WeatherDisplay:10.37,2013-07-19 15:11:00,
2013-07-19 10:16:00,84.8,76.8,29.00,ESE,116,2.1,3.5,77,0.00,,FEW,0.12,WeatherDisplay:10.37,2013-07-19 15:16:00,
2013-07-19 10:21:00,84.6,76.2,29.00,ESE,120,1.2,2.3,76,0.00,,FEW,0.12,WeatherDisplay:10.37,2013-07-19 15:21:00,
2013-07-19 10:26:00,84.7,76.3,29.00,South,173,2.9,4.6,76,0.00,,FEW,0.12,WeatherDisplay:10.37,2013-07-19 15:26:00,
2013-07-19 10:31:00,85.0,75.8,29.00,ESE,108,2.2,3.5,74,0.00,,FEW,0.12,WeatherDisplay:10.37,2013-07-19 15:31:00,
2013-07-19 10:36:00,84.3,75.9,29.00,SE,133,0.9,2.3,76,0.00,,FEW,0.12,WeatherDisplay:10.37,2013-07-19 15:36:00,
2013-07-19 10:41:00,84.8,76.8,29.00,ESE,116,1.1,3.2,77,0.00,,FEW,0.12,WeatherDisplay:10.37,2013-07-19 15:41:00,
2013-07-19 10:46:00,84.7,75.9,29.00,ESE,110,5.3,6.9,75,0.00,,FEW,0.12,WeatherDisplay:10.37,2013-07-19 15:46:00,
2013-07-19 10:51:00,84.7,76.3,29.00,ESE,108,3.6,6.3,76,0.00,,FEW,0.12,WeatherDisplay:10.37,2013-07-19 15:51:00,
2013-07-19 10:56:00,84.9,76.1,29.00,West,279,0.1,1.2,75,0.00,,FEW,0.12,WeatherDisplay:10.37,2013-07-19 15:56:00,
2013-07-19 11:01:00,85.2,76.0,29.00,SE,137,2.3,5.8,74,0.00,,FEW,0.12,WeatherDisplay:10.37,2013-07-19 16:01:00,
2013-07-19 11:06:00,85.5,76.7,29.00,ESE,122,0.5,2.3,75,0.00,,FEW,0.12,WeatherDisplay:10.37,2013-07-19 16:06:00,
2013-07-19 11:11:00,85.7,77.3,29.00,NNW,348,0.7,4.6,76,0.00,,FEW,0.12,WeatherDisplay:10.37,2013-07-19 16:11:00,
2013-07-19 11:16:00,85.6,75.9,29.00,ESE,108,3.0,5.8,73,0.00,,FEW,0.12,WeatherDisplay:10.37,2013-07-19 16:16:00,
2013-07-19 11:21:00,85.3,76.5,29.00,ESE,115,2.0,5.8,75,0.00,,FEW,0.12,WeatherDisplay:10.37,2013-07-19 16:21:00,
2013-07-19 11:26:00,85.4,76.6,29.00,ENE,75,0.7,2.3,75,0.00,,FEW,0.12,WeatherDisplay:10.37,2013-07-19 16:26:00,
2013-07-19 11:31:00,85.4,77.4,29.00,East,95,2.8,5.8,77,0.00,,FEW,0.12,WeatherDisplay:10.37,2013-07-19 16:31:00,
2013-07-19 11:36:00,85.1,76.3,29.00,ESE,109,3.2,5.8,75,0.00,,FEW,0.12,WeatherDisplay:10.37,2013-07-19 16:36:00,
2013-07-19 11:41:00,85.3,76.9,29.00,SE,128,3.5,5.8,76,0.00,,FEW,0.12,WeatherDisplay:10.37,2013-07-19 16:41:00,
2013-07-19 11:46:00,85.4,76.6,29.00,ESE,122,1.2,5.8,75,0.00,,FEW,0.12,WeatherDisplay:10.37,2013-07-19 16:46:00,
2013-07-19 11:51:00,85.6,76.8,29.00,ESE,123,0.1,2.1,75,0.00,,FEW,0.12,WeatherDisplay:10.37,2013-07-19 16:51:00,
2013-07-19 11:56:00,85.3,75.7,29.00,ESE,116,7.1,10.4,73,0.00,,FEW,0.12,WeatherDisplay:10.37,2013-07-19 16:56:00,
2013-07-19 12:01:00,85.2,76.4,29.00,East,97,4.3,5.8,75,0.00,,FEW,0.12,WeatherDisplay:10.37,2013-07-19 17:01:00,
2013-07-19 12:06:00,85.6,77.2,29.00,ESE,121,2.4,5.8,76,0.00,,FEW,0.12,WeatherDisplay:10.37,2013-07-19 17:06:00,
2013-07-19 12:11:00,85.6,76.4,29.00,SE,124,4.5,6.9,74,0.00,,FEW,0.12,WeatherDisplay:10.37,2013-07-19 17:11:00,
2013-07-19 12:16:00,85.4,76.2,28.99,East,94,7.2,11.3,74,0.00,,FEW,0.12,WeatherDisplay:10.37,2013-07-19 17:16:00,
2013-07-19 12:21:00,85.7,76.5,28.99,NE,47,5.1,5.1,74,0.00,,FEW,0.12,WeatherDisplay:10.37,2013-07-19 17:21:00,
2013-07-19 12:26:00,85.6,76.4,28.99,ESE,107,1.0,3.5,74,0.00,,FEW,0.12,WeatherDisplay:10.37,2013-07-19 17:26:00,
2013-07-19 12:31:00,86.0,77.1,28.99,East,99,2.5,3.5,75,0.00,,FEW,0.12,WeatherDisplay:10.37,2013-07-19 17:31:00,
2013-07-19 12:36:00,86.6,76.9,28.99,SE,125,2.1,8.1,73,0.00,,FEW,0.12,WeatherDisplay:10.37,2013-07-19 17:36:00,
2013-07-19 12:41:00,86.2,76.1,28.99,SE,128,5.7,9.2,72,0.00,,FEW,0.12,WeatherDisplay:10.37,2013-07-19 17:41:00,
2013-07-19 12:46:00,86.1,76.8,28.99,ESE,116,3.5,5.8,74,0.00,,FEW,0.12,WeatherDisplay:10.37,2013-07-19 17:46:00,
2013-07-19 12:51:00,86.3,75.8,28.99,East,97,6.4,8.1,71,0.00,,FEW,0.12,WeatherDisplay:10.37,2013-07-19 17:51:00,
2013-07-19 12:56:00,86.1,76.8,28.99,ESE,123,3.9,8.1,74,0.00,,FEW,0.12,WeatherDisplay:10.37,2013-07-19 17:56:00,
2013-07-19 13:01:00,86.4,77.1,28.99,ESE,117,1.9,5.8,74,0.00,,FEW,0.12,WeatherDisplay:10.37,2013-07-19 18:01:00,
2013-07-19 13:06:00,86.7,76.6,28.99,East,87,4.5,8.1,72,0.00,,FEW,0.12,WeatherDisplay:10.37,2013-07-19 18:06:00,
2013-07-19 13:11:00,86.3,76.2,28.99,SE,126,4.7,6.9,72,0.00,,FEW,0.12,WeatherDisplay:10.37,2013-07-19 18:11:00,
2013-07-19 13:16:00,86.5,76.4,28.98,East,100,1.7,4.6,72,0.00,,FEW,0.12,WeatherDisplay:10.37,2013-07-19 18:16:00,
2013-07-19 13:21:00,86.1,75.6,28.98,ESE,111,5.8,10.4,71,0.00,,FEW,0.12,WeatherDisplay:10.37,2013-07-19 18:21:00,
2013-07-19 13:26:00,85.9,76.2,28.98,East,88,4.1,5.8,73,0.00,,FEW,0.12,WeatherDisplay:10.37,2013-07-19 18:26:00,
2013-07-19 13:31:00,85.9,75.8,28.98,East,98,6.4,10.4,72,0.00,,FEW,0.12,WeatherDisplay:10.37,2013-07-19 18:31:00,
2013-07-19 13:36:00,86.0,76.3,28.98,SE,128,3.7,8.1,73,0.00,,FEW,0.12,WeatherDisplay:10.37,2013-07-19 18:36:00,
2013-07-19 13:41:00,86.0,75.9,28.98,ENE,74,9.9,11.3,72,0.00,,FEW,0.12,WeatherDisplay:10.37,2013-07-19 18:41:00,
2013-07-19 13:46:00,85.8,75.7,28.98,SE,140,5.0,8.1,72,0.00,,FEW,0.12,WeatherDisplay:10.37,2013-07-19 18:46:00,
2013-07-19 13:51:00,85.9,76.2,28.97,South,173,4.2,12.7,73,0.00,,FEW,0.12,WeatherDisplay:10.37,2013-07-19 18:51:00,
2013-07-19 13:56:00,86.5,76.4,28.97,East,90,3.7,5.8,72,0.00,,FEW,0.12,WeatherDisplay:10.37,2013-07-19 18:56:00,
2013-07-19 14:01:00,86.3,75.8,28.98,ESE,117,2.2,15.0,71,0.00,,FEW,0.12,WeatherDisplay:10.37,2013-07-19 19:01:00,
2013-07-19 14:06:00,86.1,76.8,28.97,SE,124,5.2,7.4,74,0.00,,FEW,0.12,WeatherDisplay:10.37,2013-07-19 19:06:00,
2013-07-19 14:11:00,86.2,76.9,28.97,SSE,147,7.6,10.4,74,0.00,,FEW,0.12,WeatherDisplay:10.37,2013-07-19 19:11:00,
2013-07-19 14:16:00,85.9,76.6,28.97,ESE,106,5.5,8.1,74,0.00,,FEW,0.12,WeatherDisplay:10.37,2013-07-19 19:16:00,
2013-07-19 14:21:00,85.9,76.2,28.97,ESE,120,6.8,11.5,73,0.00,,FEW,0.12,WeatherDisplay:10.37,2013-07-19 19:21:00,
2013-07-19 14:26:00,85.8,76.1,28.96,ESE,111,3.2,9.2,73,0.00,,FEW,0.12,WeatherDisplay:10.37,2013-07-19 19:26:00,
2013-07-19 14:31:00,86.2,76.9,28.96,East,95,5.2,9.2,74,0.00,,FEW,0.12,WeatherDisplay:10.37,2013-07-19 19:31:00,
2013-07-19 14:36:00,86.3,75.8,28.96,East,97,7.8,8.1,71,0.00,,FEW,0.12,WeatherDisplay:10.37,2013-07-19 19:36:00,
2013-07-19 14:41:00,86.0,75.5,28.96,ESE,123,3.1,8.1,71,0.00,,FEW,0.12,WeatherDisplay:10.37,2013-07-19 19:41:00,
2013-07-19 14:46:00,86.0,76.3,28.96,SE,134,5.7,6.9,73,0.00,,FEW,0.12,WeatherDisplay:10.37,2013-07-19 19:46:00,
2013-07-19 14:51:00,86.3,76.2,28.96,ESE,116,6.7,15.0,72,0.00,,FEW,0.12,WeatherDisplay:10.37,2013-07-19 19:51:00,
2013-07-19 14:56:00,86.4,76.3,28.96,ESE,111,4.3,10.4,72,0.00,,FEW,0.12,WeatherDisplay:10.37,2013-07-19 19:56:00,
2013-07-19 15:01:00,86.2,76.9,28.96,SE,124,0.3,5.8,74,0.00,,FEW,0.12,WeatherDisplay:10.37,2013-07-19 20:01:00,
2013-07-19 15:06:00,87.0,76.5,28.95,SE,135,6.4,12.7,71,0.00,,FEW,0.12,WeatherDisplay:10.37,2013-07-19 20:06:00,
2013-07-19 15:11:00,86.7,76.2,28.95,East,95,4.9,9.2,71,0.00,,FEW,0.12,WeatherDisplay:10.37,2013-07-19 20:11:00,
2013-07-19 15:16:00,86.3,76.2,28.95,ESE,117,5.6,9.2,72,0.00,,FEW,0.12,WeatherDisplay:10.37,2013-07-19 20:16:00,
2013-07-19 15:21:00,86.0,76.7,28.95,East,97,3.1,9.2,74,0.00,,FEW,0.12,WeatherDisplay:10.37,2013-07-19 20:21:00,
2013-07-19 15:26:00,85.8,75.7,28.95,East,85,7.0,11.5,72,0.00,,FEW,0.12,WeatherDisplay:10.37,2013-07-19 20:26:00,
2013-07-19 15:31:00,85.6,75.5,28.95,SE,126,4.6,9.2,72,0.00,,FEW,0.12,WeatherDisplay:10.37,2013-07-19 20:31:00,
2013-07-19 15:36:00,85.4,75.3,28.95,ESE,105,6.4,8.1,72,0.00,,FEW,0.12,WeatherDisplay:10.37,2013-07-19 20:36:00,
2013-07-19 15:41:00,85.6,75.5,28.95,ESE,109,7.0,9.2,72,0.00,,FEW,0.12,WeatherDisplay:10.37,2013-07-19 20:41:00,
2013-07-19 15:46:00,85.8,75.7,28.95,ESE,103,7.6,12.7,72,0.00,,FEW,0.12,WeatherDisplay:10.37,2013-07-19 20:46:00,
2013-07-19 15:51:00,85.5,75.9,28.95,ESE,116,3.1,11.5,73,0.00,,FEW,0.12,WeatherDisplay:10.37,2013-07-19 20:51:00,
2013-07-19 15:56:00,85.2,75.1,28.95,ESE,116,6.1,11.5,72,0.00,,FEW,0.12,WeatherDisplay:10.37,2013-07-19 20:56:00,
2013-07-19 16:01:00,85.1,75.1,28.95,ESE,112,8.1,10.4,72,0.00,,FEW,0.12,WeatherDisplay:10.37,2013-07-19 21:01:00,
2013-07-19 16:06:00,85.2,75.1,28.95,ESE,117,10.5,12.7,72,0.00,,FEW,0.12,WeatherDisplay:10.37,2013-07-19 21:06:00,
2013-07-19 16:11:00,85.1,75.1,28.94,ENE,71,14.0,14.0,72,0.00,,FEW,0.12,WeatherDisplay:10.37,2013-07-19 21:11:00,
2013-07-19 16:16:00,85.2,75.1,28.94,SE,142,8.8,12.7,72,0.00,,FEW,0.12,WeatherDisplay:10.37,2013-07-19 21:16:00,
2013-07-19 16:21:00,85.2,74.7,28.94,SSE,149,6.9,18.4,71,0.00,,FEW,0.12,WeatherDisplay:10.37,2013-07-19 21:21:00,
2013-07-19 16:26:00,85.5,75.9,28.93,South,182,6.1,8.1,73,0.00,,FEW,0.12,WeatherDisplay:10.37,2013-07-19 21:26:00,
2013-07-19 16:31:00,85.5,75.0,28.93,East,98,7.6,15.0,71,0.00,,FEW,0.12,WeatherDisplay:10.37,2013-07-19 21:31:00,
2013-07-19 16:36:00,85.5,75.0,28.93,SSE,159,8.4,13.7,71,0.00,,FEW,0.12,WeatherDisplay:10.37,2013-07-19 21:36:00,
2013-07-19 16:41:00,85.7,75.6,28.93,East,100,5.8,10.4,72,0.00,,FEW,0.12,WeatherDisplay:10.37,2013-07-19 21:41:00,
2013-07-19 16:46:00,86.0,75.5,28.93,SE,135,10.2,12.7,71,0.00,,FEW,0.12,WeatherDisplay:10.37,2013-07-19 21:46:00,
2013-07-19 16:51:00,85.6,75.5,28.93,SSE,160,7.7,17.3,72,0.00,,FEW,0.12,WeatherDisplay:10.37,2013-07-19 21:51:00,
2013-07-19 16:56:00,85.7,75.6,28.92,SE,132,7.4,10.4,72,0.00,,FEW,0.12,WeatherDisplay:10.37,2013-07-19 21:56:00,
2013-07-19 17:01:00,85.8,76.1,28.92,SE,125,8.8,10.4,73,0.00,,FEW,0.12,WeatherDisplay:10.37,2013-07-19 22:01:00,
2013-07-19 17:06:00,85.3,75.7,28.92,ESE,111,6.6,10.4,73,0.00,,FEW,0.12,WeatherDisplay:10.37,2013-07-19 22:06:00,
2013-07-19 17:11:00,85.6,75.5,28.92,SSE,148,9.9,17.3,72,0.00,,FEW,0.12,WeatherDisplay:10.37,2013-07-19 22:11:00,
2013-07-19 17:16:00,85.2,76.0,28.92,SSE,162,9.2,11.5,74,0.00,,FEW,0.12,WeatherDisplay:10.37,2013-07-19 22:16:00,
2013-07-19 17:21:00,84.9,76.1,28.92,East,85,7.0,10.4,75,0.00,,FEW,0.12,WeatherDisplay:10.37,2013-07-19 22:21:00,
2013-07-19 17:26:00,85.1,75.9,28.92,SE,125,7.3,10.4,74,0.00,,FEW,0.12,WeatherDisplay:10.37,2013-07-19 22:26:00,
2013-07-19 17:31:00,85.1,75.9,28.91,South,175,8.1,13.8,74,0.00,,FEW,0.12,WeatherDisplay:10.37,2013-07-19 22:31:00,
2013-07-19 17:36:00,84.8,76.0,28.92,ESE,107,7.2,15.0,75,0.00,,FEW,0.12,WeatherDisplay:10.37,2013-07-19 22:36:00,
2013-07-19 17:41:00,84.8,76.8,28.92,NE,38,10.6,10.6,77,0.00,,FEW,0.12,WeatherDisplay:10.37,2013-07-19 22:41:00,
2013-07-19 17:46:00,84.7,76.7,28.91,ESE,121,6.5,11.5,77,0.00,,FEW,0.12,WeatherDisplay:10.37,2013-07-19 22:46:00,
2013-07-19 17:51:00,84.5,76.1,28.91,East,80,9.1,15.0,76,0.00,,FEW,0.12,WeatherDisplay:10.37,2013-07-19 22:51:00,
2013-07-19 17:56:00,84.5,75.7,28.91,ESE,112,8.7,11.5,75,0.00,,FEW,0.12,WeatherDisplay:10.37,2013-07-19 22:56:00,
2013-07-19 18:01:00,84.6,76.2,28.91,East,98,6.4,16.1,76,0.00,,FEW,0.12,WeatherDisplay:10.37,2013-07-19 23:01:00,
2013-07-19 18:06:00,84.8,76.4,28.91,ESE,122,10.1,13.7,76,0.00,,FEW,0.12,WeatherDisplay:10.37,2013-07-19 23:06:00,
2013-07-19 18:11:00,84.7,76.3,28.90,SE,133,5.4,12.7,76,0.00,,FEW,0.12,WeatherDisplay:10.37,2013-07-19 23:11:00,
2013-07-19 18:16:00,84.7,76.7,28.91,East,94,8.5,15.0,77,0.00,,FEW,0.12,WeatherDisplay:10.37,2013-07-19 23:16:00,
2013-07-19 18:21:00,84.5,76.1,28.91,SE,127,9.6,12.7,76,0.00,,FEW,0.12,WeatherDisplay:10.37,2013-07-19 23:21:00,
2013-07-19 18:26:00,84.3,76.3,28.91,South,177,4.9,9.2,77,0.00,,FEW,0.12,WeatherDisplay:10.37,2013-07-19 23:26:00,
2013-07-19 18:31:00,84.2,76.2,28.91,ESE,102,7.6,11.5,77,0.00,,FEW,0.12,WeatherDisplay:10.37,2013-07-19 23:31:00,
2013-07-19 18:36:00,84.3,76.7,28.91,East,94,6.2,9.2,78,0.00,,FEW,0.12,WeatherDisplay:10.37,2013-07-19 23:36:00,
2013-07-19 18:41:00,84.3,75.5,28.91,East,101,9.4,15.0,75,0.00,,FEW,0.12,WeatherDisplay:10.37,2013-07-19 23:41:00,
2013-07-19 18:46:00,84.1,75.7,28.91,SE,132,9.1,13.2,76,0.00,,FEW,0.12,WeatherDisplay:10.37,2013-07-19 23:46:00,
2013-07-19 18:51:00,84.0,74.8,28.90,ESE,107,9.2,10.4,74,0.00,,FEW,0.12,WeatherDisplay:10.37,2013-07-19 23:51:00,
2013-07-19 18:56:00,84.0,75.2,28.90,SE,133,5.1,9.2,75,0.00,,FEW,0.12,WeatherDisplay:10.37,2013-07-19 23:56:00,
2013-07-19 19:01:00,84.0,75.6,28.90,East,83,7.2,13.8,76,0.00,,FEW,0.12,WeatherDisplay:10.37,2013-07-20 00:01:00,
2013-07-19 19:06:00,83.9,75.9,28.90,SE,137,11.0,20.7,77,0.00,,FEW,0.12,WeatherDisplay:10.37,2013-07-20 00:06:00,
2013-07-19 19:11:00,83.9,76.3,28.90,ESE,120,10.2,12.7,78,0.00,,FEW,0.12,WeatherDisplay:10.37,2013-07-20 00:11:00,
2013-07-19 19:16:00,83.8,76.2,28.90,East,90,5.0,8.1,78,0.00,,FEW,0.12,WeatherDisplay:10.37,2013-07-20 00:16:00,
2013-07-19 19:21:00,83.6,76.0,28.90,ESE,114,9.4,18.8,78,0.00,,FEW,0.12,WeatherDisplay:10.37,2013-07-20 00:21:00,
2013-07-19 19:26:00,83.3,75.7,28.91,NE,54,14.4,14.4,78,0.00,,FEW,0.12,WeatherDisplay:10.37,2013-07-20 00:26:00,
2013-07-19 19:31:00,83.4,76.2,28.91,East,95,8.7,15.0,79,0.00,,FEW,0.12,WeatherDisplay:10.37,2013-07-20 00:31:00,
2013-07-19 19:36:00,83.2,75.6,28.90,ESE,119,8.3,15.0,78,0.00,,FEW,0.12,WeatherDisplay:10.37,2013-07-20 00:36:00,
2013-07-19 19:41:00,83.1,75.9,28.91,SSE,163,6.8,11.5,79,0.00,,FEW,0.12,WeatherDisplay:10.37,2013-07-20 00:41:00,
2013-07-19 19:46:00,83.0,76.6,28.91,East,90,7.6,11.5,81,0.00,,FEW,0.12,WeatherDisplay:10.37,2013-07-20 00:46:00,
2013-07-19 19:51:00,82.8,76.0,28.90,ESE,115,4.5,10.4,80,0.00,,FEW,0.12,WeatherDisplay:10.37,2013-07-20 00:51:00,
2013-07-19 19:56:00,82.5,76.1,28.91,SE,129,7.0,9.2,81,0.00,,FEW,0.12,WeatherDisplay:10.37,2013-07-20 00:56:00,
2013-07-19 20:01:00,82.3,75.9,28.90,SE,140,7.1,7.1,81,0.00,,FEW,0.12,WeatherDisplay:10.37,2013-07-20 01:01:00,
2013-07-19 20:06:00,82.1,74.9,28.90,East,99,5.0,10.4,79,0.00,,FEW,0.12,WeatherDisplay:10.37,2013-07-20 01:06:00,
2013-07-19 20:11:00,81.9,74.4,28.91,South,173,4.9,10.4,78,0.00,,FEW,0.12,WeatherDisplay:10.37,2013-07-20 01:11:00,
2013-07-19 20:16:00,81.9,74.7,28.91,SE,137,6.0,7.4,79,0.00,,FEW,0.12,WeatherDisplay:10.37,2013-07-20 01:16:00,
2013-07-19 20:21:00,81.7,74.9,28.91,ESE,118,5.2,8.1,80,0.00,,FEW,0.12,WeatherDisplay:10.37,2013-07-20 01:21:00,
2013-07-19 20:26:00,81.6,75.2,28.91,East,97,3.4,6.9,81,0.00,,FEW,0.12,WeatherDisplay:10.37,2013-07-20 01:26:00,
2013-07-19 20:31:00,81.5,75.5,28.91,SSE,159,4.3,8.1,82,0.00,,FEW,0.12,WeatherDisplay:10.37,2013-07-20 01:31:00,
2013-07-19 20:36:00,81.4,75.4,28.91,ESE,102,6.1,8.1,82,0.00,,FEW,0.12,WeatherDisplay:10.37,2013-07-20 01:36:00,
2013-07-19 20:41:00,81.3,75.3,28.92,ESE,113,2.1,5.8,82,0.00,,FEW,0.12,WeatherDisplay:10.37,2013-07-20 01:41:00,
2013-07-19 20:46:00,81.2,74.8,28.92,SSE,165,5.9,6.9,81,0.00,,FEW,0.12,WeatherDisplay:10.37,2013-07-20 01:46:00,
2013-07-19 20:51:00,81.2,74.8,28.92,SE,132,4.9,9.2,81,0.00,,FEW,0.12,WeatherDisplay:10.37,2013-07-20 01:51:00,
2013-07-19 20:56:00,81.2,75.2,28.92,ESE,108,4.7,11.5,82,0.00,,FEW,0.12,WeatherDisplay:10.37,2013-07-20 01:56:00,
2013-07-19 21:01:00,81.1,74.7,28.92,ESE,111,5.9,7.4,81,0.00,,FEW,0.12,WeatherDisplay:10.37,2013-07-20 02:01:00,
2013-07-19 21:06:00,81.1,74.7,28.92,ESE,121,6.4,8.1,81,0.00,,FEW,0.12,WeatherDisplay:10.37,2013-07-20 02:06:00,
2013-07-19 21:11:00,81.1,74.7,28.92,ESE,111,2.0,5.8,81,0.00,,FEW,0.12,WeatherDisplay:10.37,2013-07-20 02:11:00,
2013-07-19 21:16:00,81.0,75.0,28.92,SSE,149,4.2,5.8,82,0.00,,FEW,0.12,WeatherDisplay:10.37,2013-07-20 02:16:00,
2013-07-19 21:21:00,80.9,74.9,28.93,SE,126,5.1,9.2,82,0.00,,FEW,0.12,WeatherDisplay:10.37,2013-07-20 02:21:00,
2013-07-19 21:26:00,80.9,74.9,28.93,ESE,116,6.3,6.9,82,0.00,,FEW,0.12,WeatherDisplay:10.37,2013-07-20 02:26:00,
2013-07-19 21:31:00,80.9,74.9,28.93,ESE,102,8.5,11.5,82,0.00,,FEW,0.12,WeatherDisplay:10.37,2013-07-20 02:31:00,
2013-07-19 21:36:00,81.0,75.3,28.93,South,182,5.4,6.9,83,0.00,,FEW,0.12,WeatherDisplay:10.37,2013-07-20 02:36:00,
2013-07-19 21:41:00,81.0,75.7,28.93,ESE,119,4.1,5.8,84,0.00,,FEW,0.12,WeatherDisplay:10.37,2013-07-20 02:41:00,
2013-07-19 21:46:00,80.9,75.6,28.93,ESE,118,8.5,11.5,84,0.00,,FEW,0.12,WeatherDisplay:10.37,2013-07-20 02:46:00,
2013-07-19 21:51:00,81.0,75.7,28.94,SE,140,6.8,9.2,84,0.00,,FEW,0.12,WeatherDisplay:10.37,2013-07-20 02:51:00,
2013-07-19 21:56:00,81.0,75.7,28.94,ESE,106,2.3,5.8,84,0.00,,FEW,0.12,WeatherDisplay:10.37,2013-07-20 02:56:00,
2013-07-19 22:01:00,80.9,75.6,28.94,SE,138,5.7,5.8,84,0.00,,FEW,0.12,WeatherDisplay:10.37,2013-07-20 03:01:00,
2013-07-19 22:06:00,80.8,75.2,28.94,ESE,110,4.9,9.5,83,0.00,,FEW,0.12,WeatherDisplay:10.37,2013-07-20 03:06:00,
2013-07-19 22:11:00,80.9,75.6,28.94,South,175,4.4,10.4,84,0.00,,FEW,0.12,WeatherDisplay:10.37,2013-07-20 03:11:00,
2013-07-19 22:16:00,80.8,75.9,28.94,SSE,163,0.1,4.6,85,0.00,,FEW,0.12,WeatherDisplay:10.37,2013-07-20 03:16:00,
2013-07-19 22:21:00,80.7,75.8,28.94,SE,138,4.9,6.9,85,0.00,,FEW,0.12,WeatherDisplay:10.37,2013-07-20 03:21:00,
2013-07-19 22:26:00,80.7,75.8,28.94,SSE,147,2.8,9.2,85,0.00,,FEW,0.12,WeatherDisplay:10.37,2013-07-20 03:26:00,
2013-07-19 22:31:00,80.6,75.7,28.94,ESE,116,2.5,5.8,85,0.00,,FEW,0.12,WeatherDisplay:10.37,2013-07-20 03:31:00,
2013-07-19 22:36:00,80.7,75.8,28.94,SSE,149,4.0,6.3,85,0.00,,FEW,0.12,WeatherDisplay:10.37,2013-07-20 03:36:00,
2013-07-19 22:41:00,80.8,75.5,28.95,ESE,116,4.9,9.2,84,0.00,,FEW,0.12,WeatherDisplay:10.37,2013-07-20 03:41:00,
2013-07-19 22:46:00,80.8,75.5,28.95,SE,142,1.6,4.6,84,0.00,,FEW,0.12,WeatherDisplay:10.37,2013-07-20 03:46:00,
2013-07-19 22:51:00,80.7,75.8,28.95,South,175,3.5,6.9,85,0.00,,FEW,0.12,WeatherDisplay:10.37,2013-07-20 03:51:00,
2013-07-19 22:56:00,80.7,75.8,28.95,SE,130,0.5,5.8,85,0.00,,FEW,0.12,WeatherDisplay:10.37,2013-07-20 03:56:00,
2013-07-19 23:01:00,80.7,75.8,28.95,SSE,149,4.9,6.9,85,0.00,,FEW,0.12,WeatherDisplay:10.37,2013-07-20 04:01:00,
2013-07-19 23:06:00,80.7,75.8,28.95,SSE,149,2.3,6.9,85,0.00,,FEW,0.12,WeatherDisplay:10.37,2013-07-20 04:06:00,
2013-07-19 23:11:00,80.7,76.1,28.95,SSE,151,2.9,5.8,86,0.00,,FEW,0.12,WeatherDisplay:10.37,2013-07-20 04:11:00,
2013-07-19 23:16:00,80.6,76.0,28.95,South,173,2.1,3.5,86,0.00,,FEW,0.12,WeatherDisplay:10.37,2013-07-20 04:16:00,
2013-07-19 23:21:00,80.5,75.9,28.95,SSE,152,1.4,4.6,86,0.00,,FEW,0.12,WeatherDisplay:10.37,2013-07-20 04:21:00,
2013-07-19 23:26:00,80.5,75.9,28.95,SE,139,2.1,5.2,86,0.00,,FEW,0.12,WeatherDisplay:10.37,2013-07-20 04:26:00,
2013-07-19 23:31:00,80.6,75.7,28.96,ESE,122,5.9,5.9,85,0.00,,FEW,0.12,WeatherDisplay:10.37,2013-07-20 04:31:00,
2013-07-19 23:36:00,80.5,75.2,28.96,SSE,158,3.9,9.2,84,0.00,,FEW,0.12,WeatherDisplay:10.37,2013-07-20 04:36:00,
2013-07-19 23:41:00,80.5,75.2,28.96,SSE,159,4.4,6.9,84,0.00,,FEW,0.12,WeatherDisplay:10.37,2013-07-20 04:41:00,
2013-07-19 23:46:00,80.6,75.3,28.96,SE,125,2.6,5.8,84,0.00,,FEW,0.12,WeatherDisplay:10.37,2013-07-20 04:46:00,
2013-07-19 23:51:00,80.6,75.7,28.96,SSE,151,5.9,6.9,85,0.00,,FEW,0.12,WeatherDisplay:10.37,2013-07-20 04:51:00,
2013-07-19 23:56:00,80.7,75.8,28.96,SE,128,3.9,5.8,85,0.00,,FEW,0.12,WeatherDisplay:10.37,2013-07-20 04:56:00,